Latest Weather Observations for Amberley

IDQ60801

Issued at 3:02 pm EST Monday 23 September 2019 (issued every 10 minutes, with the page automatically refreshed every 10 minutes)

About weather observations | Map of weather stations | Latest weather observations for QLD | Other Formats
Station Details ID: 040004 Name: AMBERLEY AMO Lat: -27.63 Lon: 152.71 Height: 24.2 m
Data from the previous 72 hours. | See also: Recent months at Amberley
Date/Time
EST
Temp
°C
App
Temp
°C
Dew
Point
°C
Rel
Hum
%
Delta-T
°C
Wind Press
QNH
hPa
Press
MSL
hPa
Rain since
9am
mm
Dir  Spd
km/h
Gust
km/h
Spd
kts
Gust
kts
23/02:30pm 32.6 29.0 10.6 26 12.7 W 20 33 11 18 1017.3 1017.3 0.0
23/02:11pm 32.6 27.5 10.6 26 12.7 W 28 46 15 25 1017.6 1017.6 0.0
23/02:00pm 32.4 26.5 10.4 26 12.6 W 32 43 17 23 1017.7 1017.7 0.0
23/01:30pm 32.2 28.2 10.3 26 12.6 W 22 41 12 22 1018.0 1018.0 0.0
23/01:00pm 31.8 27.8 10.5 27 12.2 WNW 22 39 12 21 1018.7 1018.7 0.0
23/12:30pm 31.2 28.3 11.1 29 11.6 NW 17 39 9 21 1019.4 1019.4 0.0
23/12:00pm 30.2 27.0 11.2 31 10.9 NW 19 35 10 19 1019.9 1019.9 0.0
23/11:30am 29.2 24.2 10.8 32 10.5 NW 28 35 15 19 1020.8 1020.8 0.0
23/11:00am 28.2 24.1 11.3 35 9.7 WNW 24 33 13 18 1021.3 1021.3 0.0
23/10:30am 27.4 24.2 11.8 38 9.0 NW 20 30 11 16 1022.2 1022.2 0.0
23/10:00am 25.7 23.3 12.5 44 7.6 WNW 17 26 9 14 1022.8 1022.8 0.0
23/09:30am 24.9 22.6 13.1 48 6.9 WNW 17 26 9 14 1023.3 1023.3 0.0
23/09:00am 23.7 21.1 13.3 52 6.0 NW 19 28 10 15 1023.7 1023.7 0.0
23/08:30am 22.4 20.4 14.0 59 4.9 NNW 17 26 9 14 1023.9 1023.9 0.0
23/08:00am 21.0 18.6 14.4 66 3.8 NNW 20 28 11 15 1024.1 1024.1 0.0
23/07:30am 17.5 17.9 14.8 84 1.6 E 6 9 3 5 1024.4 1024.4 0.0
23/07:00am 14.9 16.0 13.4 91 0.8 CALM 0 6 0 3 1024.5 1024.5 0.0
23/06:30am 12.7 12.2 12.1 96 0.3 E 6 7 3 4 1024.3 1024.3 0.0
23/06:00am 11.4 11.7 10.8 96 0.3 CALM 0 6 0 3 1023.8 1023.8 0.0
23/05:30am 10.8 10.9 10.0 95 0.4 CALM 0 0 0 0 1023.5 1023.5 0.0
23/05:29am 10.8 10.9 10.0 95 0.4 CALM 0 0 0 0 1023.5 1023.5 0.0
23/05:00am 11.9 12.3 11.3 96 0.3 CALM 0 0 0 0 1023.5 1023.5 0.0
23/04:40am 12.2 12.7 11.6 96 0.3 CALM 0 0 0 0 1023.1 1023.1 0.0
23/04:30am 11.8 12.2 11.2 96 0.3 CALM 0 0 0 0 1022.9 1022.9 0.0
23/04:00am 11.9 11.9 11.1 95 0.4 E 2 6 1 3 1022.6 1022.6 0.0
23/03:48am 11.9 12.3 11.1 95 0.4 CALM 0 0 0 0 1022.7 1022.7 0.0
23/03:30am 12.2 12.2 11.3 94 0.5 E 2 6 1 3 1022.8 1022.8 0.0
23/03:00am 12.5 13.0 11.6 94 0.5 CALM 0 0 0 0 1022.9 1022.9 0.0
23/02:30am 12.8 13.4 11.9 94 0.5 CALM 0 0 0 0 1022.6 1022.6 0.0
23/02:00am 12.9 13.5 12.0 94 0.5 CALM 0 0 0 0 1022.9 1022.9 0.0
23/01:30am 13.4 14.2 12.6 95 0.4 CALM 0 0 0 0 1023.1 1023.1 0.0
23/01:00am 13.4 14.0 12.0 91 0.7 CALM 0 0 0 0 1023.3 1023.3 0.0
23/12:30am 14.2 15.1 12.8 91 0.8 CALM 0 0 0 0 1023.6 1023.6 0.0
23/12:00am 14.5 15.3 12.7 89 1.0 CALM 0 0 0 0 1023.7 1023.7 0.0
 
Date/Time
EST
Temp
°C
App
Temp
°C
Dew
Point
°C
Rel
Hum
%
Delta-T
°C
Wind Press
QNH
hPa
Press
MSL
hPa
Rain since
9am
mm
Dir  Spd
km/h
Gust
km/h
Spd
kts
Gust
kts
22/11:30pm 15.0 15.6 13.2 89 1.0 E 2 6 1 3 1023.7 1023.7 0.0
22/11:00pm 15.0 15.9 13.0 88 1.1 CALM 0 0 0 0 1023.5 1023.5 0.0
22/10:30pm 15.6 16.6 13.1 85 1.4 CALM 0 0 0 0 1023.4 1023.4 0.0
22/10:00pm 16.1 17.3 13.9 87 1.2 CALM 0 0 0 0 1023.3 1023.3 0.0
22/09:30pm 18.0 17.8 14.7 81 1.9 E 9 9 5 5 1023.4 1023.4 0.0
22/09:00pm 18.5 18.1 14.2 76 2.5 E 9 9 5 5 1023.2 1023.2 0.0
22/08:30pm 19.6 19.2 14.2 71 3.1 ENE 9 11 5 6 1023.1 1023.1 0.0
22/08:00pm 20.3 19.0 14.9 71 3.2 E 15 19 8 10 1022.9 1022.9 0.0
22/07:30pm 20.8 19.3 15.4 71 3.2 ENE 17 24 9 13 1022.5 1022.5 0.0
22/07:00pm 21.3 19.4 15.2 68 3.6 ENE 19 28 10 15 1022.3 1022.3 0.0
22/06:30pm 22.1 19.4 14.5 62 4.5 ENE 22 30 12 16 1022.1 1022.1 0.0
22/06:00pm 23.1 20.3 14.4 58 5.1 ENE 22 30 12 16 1021.9 1021.9 0.0
22/05:30pm 24.2 20.9 14.0 53 6.0 NE 24 33 13 18 1021.7 1021.7 0.0
22/05:00pm 25.1 21.2 14.3 51 6.4 ENE 28 35 15 19 1021.4 1021.4 0.0
22/04:30pm 26.1 21.9 13.6 46 7.4 ENE 28 35 15 19 1021.3 1021.3 0.0
22/04:00pm 27.4 23.8 14.1 44 7.9 ENE 26 32 14 17 1021.2 1021.2 0.0
22/03:30pm 28.1 25.2 14.0 42 8.4 ENE 22 33 12 18 1021.0 1021.0 0.0
22/03:00pm 28.6 26.3 14.1 41 8.7 NE 19 26 10 14 1021.0 1021.0 0.0
22/02:30pm 28.9 26.7 13.2 38 9.3 NE 17 28 9 15 1021.2 1021.2 0.0
22/02:00pm 29.2 27.6 11.7 34 10.1 E 11 26 6 14 1021.5 1021.5 0.0
22/01:30pm 27.8 26.0 10.9 35 9.6 NNW 11 19 6 10 1022.0 1022.0 0.0
22/01:00pm 28.3 27.9 13.0 39 9.0 W 7 15 4 8 1022.5 1022.5 0.0
22/12:30pm 28.6 28.1 13.7 40 8.9 SSW 9 17 5 9 1023.0 1023.0 0.0
22/12:00pm 26.0 25.3 13.2 45 7.5 NW 9 22 5 12 1023.6 1023.6 0.0
22/11:30am 26.2 24.6 14.0 47 7.2 ENE 15 20 8 11 1023.9 1023.9 0.0
22/11:00am 25.4 24.2 13.9 49 6.8 NNE 13 20 7 11 1024.4 1024.4 0.0
22/10:30am 24.7 24.1 14.5 53 6.1 NNW 11 19 6 10 1024.9 1024.9 0.0
22/10:00am 25.0 24.9 15.0 53 6.0 NNE 9 19 5 10 1025.3 1025.3 0.0
22/09:30am 23.2 23.8 15.3 61 4.7 WSW 6 13 3 7 1025.6 1025.6 0.0
22/09:00am 22.4 23.3 16.2 68 3.7 SSE 6 9 3 5 1025.8 1025.8 0.0
22/08:33am 19.4 21.1 16.2 82 1.9 NE 2 9 1 5 1025.9 1025.9 0.0
22/08:30am 19.3 21.0 16.3 83 1.8 ENE 2 9 1 5 1025.8 1025.8 0.0
22/08:00am 18.3 20.5 16.6 90 1.0 CALM 0 7 0 4 1026.1 1026.1 0.0
22/07:30am 16.4 18.2 15.4 94 0.6 CALM 0 0 0 0 1026.0 1026.0 0.0
22/07:00am 15.5 16.0 15.0 97 0.3 E 6 7 3 4 1025.8 1025.8 0.0
22/06:30am 13.6 13.2 13.1 97 0.3 E 7 9 4 5 1025.5 1025.5 0.0
22/06:23am 13.1 12.2 12.6 97 0.3 E 9 11 5 6 1025.4 1025.4 0.0
22/06:03am 11.6 11.9 10.8 95 0.4 CALM 0 0 0 0 1025.3 1025.3 0.0
22/06:00am 11.7 12.0 10.9 95 0.4 CALM 0 0 0 0 1025.2 1025.2 0.0
22/05:58am 11.7 12.0 10.9 95 0.4 CALM 0 0 0 0 1025.2 1025.2 0.0
22/05:36am 12.3 11.7 11.7 96 0.3 E 6 7 3 4 1024.9 1024.9 0.0
22/05:30am 12.0 11.1 11.4 96 0.3 E 7 9 4 5 1024.8 1024.8 0.0
22/05:17am 11.5 10.6 10.7 95 0.4 E 6 9 3 5 1024.6 1024.6 0.0
22/05:00am 12.6 13.2 12.0 96 0.3 CALM 0 0 0 0 1024.4 1024.4 0.0
22/04:30am 12.7 13.3 11.8 94 0.5 CALM 0 0 0 0 1024.2 1024.2 0.0
22/04:17am 12.9 13.6 12.1 95 0.4 CALM 0 0 0 0 1024.1 1024.1 0.0
22/04:00am 12.9 13.5 12.0 94 0.5 CALM 0 0 0 0 1024.0 1024.0 0.0
22/03:30am 13.1 12.6 12.0 93 0.6 E 6 9 3 5 1023.8 1023.8 0.0
22/03:00am 14.0 14.9 12.9 93 0.6 CALM 0 0 0 0 1023.8 1023.8 0.0
22/02:30am 14.3 13.6 13.3 94 0.6 E 9 11 5 6 1024.0 1024.0 0.0
22/02:00am 14.2 15.2 13.1 93 0.6 CALM 0 4 0 2 1024.2 1024.2 0.0
22/01:30am 14.5 15.6 13.4 93 0.6 CALM 0 0 0 0 1024.3 1024.3 0.0
22/01:00am 14.0 14.8 12.7 92 0.7 CALM 0 0 0 0 1024.4 1024.4 0.0
22/12:30am 14.0 13.7 12.7 92 0.7 E 6 7 3 4 1024.5 1024.5 0.0
22/12:00am 14.5 15.0 12.9 90 0.9 E 2 6 1 3 1024.5 1024.5 0.0
 
Date/Time
EST
Temp
°C
App
Temp
°C
Dew
Point
°C
Rel
Hum
%
Delta-T
°C
Wind Press
QNH
hPa
Press
MSL
hPa
Rain since
9am
mm
Dir  Spd
km/h
Gust
km/h
Spd
kts
Gust
kts
21/11:30pm 16.8 17.3 15.5 92 0.8 E 7 9 4 5 1024.5 1024.5 0.0
21/11:00pm 15.8 15.2 13.6 87 1.2 E 9 11 5 6 1024.7 1024.7 0.0
21/10:30pm 18.2 18.8 15.8 86 1.4 ENE 7 11 4 6 1024.5 1024.5 0.0
21/10:00pm 18.8 19.1 15.9 83 1.7 ENE 9 11 5 6 1024.6 1024.6 0.0
21/09:30pm 18.9 18.7 15.6 81 1.9 ENE 11 13 6 7 1024.4 1024.4 0.0
21/09:00pm 19.3 18.8 15.8 80 2.1 ENE 13 19 7 10 1024.3 1024.3 0.0
21/08:30pm 19.4 18.0 15.5 78 2.3 ENE 17 20 9 11 1024.1 1024.1 0.0
21/08:00pm 19.7 18.1 15.1 75 2.7 ENE 17 24 9 13 1024.0 1024.0 0.0
21/07:30pm 19.9 17.8 14.7 72 3.0 ENE 19 28 10 15 1023.5 1023.5 0.0
21/07:00pm 20.2 18.1 14.6 70 3.3 ENE 19 28 10 15 1023.1 1023.1 0.0
21/06:30pm 20.6 16.7 14.5 68 3.6 ENE 28 39 15 21 1022.6 1022.6 0.0
21/06:00pm 21.2 17.6 14.1 64 4.1 ENE 26 37 14 20 1022.2 1022.2 0.0
21/05:30pm 21.8 17.5 13.2 58 4.9 ENE 28 37 15 20 1022.0 1022.0 0.0
21/05:00pm 23.2 18.7 12.5 51 6.1 ENE 28 37 15 20 1021.7 1021.7 0.0
21/04:30pm 24.1 19.4 12.1 47 6.8 NE 28 37 15 20 1021.4 1021.4 0.0
21/04:00pm 25.3 19.8 11.8 43 7.7 ENE 32 43 17 23 1021.1 1021.1 0.0
21/03:30pm 26.4 21.2 11.7 40 8.4 NE 30 37 16 20 1021.2 1021.2 0.0
21/03:00pm 26.8 21.4 9.6 34 9.5 ENE 28 37 15 20 1021.2 1021.2 0.0
21/02:30pm 27.1 21.2 10.3 35 9.4 ENE 32 43 17 23 1021.3 1021.3 0.0
21/02:00pm 26.0 21.2 10.2 37 8.8 NE 26 37 14 20 1021.6 1021.6 0.0
21/01:30pm 25.8 21.4 10.4 38 8.6 NE 24 35 13 19 1021.8 1021.8 0.0
21/01:00pm 25.4 21.9 12.3 44 7.5 NE 22 30 12 16 1022.3 1022.3 0.0
21/12:30pm 25.3 21.9 12.5 45 7.4 NE 22 33 12 18 1022.8 1022.8 0.0
21/12:00pm 26.6 23.7 14.0 46 7.5 NE 22 32 12 17 1023.3 1023.3 0.0
21/11:30am 24.9 22.9 13.8 50 6.5 NE 17 32 9 17 1023.8 1023.8 0.0
21/11:00am 24.1 23.1 14.5 55 5.7 ENE 13 19 7 10 1024.3 1024.3 0.0
21/10:30am 24.3 22.7 15.0 56 5.6 NE 17 28 9 15 1024.9 1024.9 0.0
21/10:00am 23.9 23.7 15.7 60 4.9 NE 11 19 6 10 1025.4 1025.4 0.0
21/09:30am 23.2 23.1 16.0 64 4.4 ENE 11 19 6 10 1025.7 1025.7 0.0
21/09:00am 21.3 22.4 16.7 75 2.8 ENE 6 13 3 7 1026.1 1026.1 1.2
21/08:30am 19.9 20.9 16.9 83 1.8 SSE 7 11 4 6 1026.3 1026.3 1.2
21/08:00am 18.5 19.4 16.5 88 1.2 SE 7 9 4 5 1026.3 1026.3 1.2
21/07:57am 18.3 19.1 16.3 88 1.2 SE 7 9 4 5 1026.2 1026.2 1.2
21/07:51am 18.0 18.9 16.2 89 1.1 SE 6 7 3 4 1026.2 1026.2 1.2
21/07:32am 16.9 17.3 14.7 87 1.3 SE 6 11 3 6 1026.1 1026.1 0.8
21/07:30am 16.9 17.3 14.7 87 1.3 SSE 6 11 3 6 1026.2 1026.2 0.6
21/07:18am 17.2 17.4 14.3 83 1.7 S 6 7 3 4 1025.9 1025.9 0.0
21/07:00am 17.0 17.0 14.3 84 1.5 S 7 9 4 5 1025.7 1025.7 0.0
21/06:30am 15.9 15.8 13.9 88 1.1 S 7 7 4 4 1025.6 1025.6 0.0
21/06:16am 15.6 15.5 13.8 89 1.0 SSW 7 9 4 5 1025.4 1025.4 0.0
21/06:00am 15.4 15.3 13.8 90 0.9 SSW 7 7 4 4 1025.3 1025.3 0.0
21/05:34am 14.9 14.8 13.3 90 0.9 SSW 6 7 3 4 1025.3 1025.3 0.0
21/05:30am 14.9 15.2 13.3 90 0.9 SSW 4 7 2 4 1025.2 1025.2 0.0
21/05:15am 15.0 16.1 13.4 90 0.9 CALM 0 0 0 0 1025.1 1025.1 0.0
21/05:00am 15.2 15.5 13.4 89 1.0 SSW 4 7 2 4 1024.9 1024.9 0.0
21/04:30am 15.3 16.1 13.7 90 0.9 SSW 2 7 1 4 1024.7 1024.7 0.0
21/04:00am 15.1 15.1 13.5 90 0.9 SSW 6 7 3 4 1024.3 1024.3 0.0
21/03:30am 15.2 14.6 13.4 89 1.0 S 9 11 5 6 1024.2 1024.2 0.0
21/03:00am 15.7 15.3 14.1 90 0.9 ENE 9 9 5 5 1024.3 1024.3 0.0
21/02:51am 15.6 15.5 14.0 90 0.9 ENE 7 9 4 5 1024.4 1024.4 0.0
21/02:46am 15.4 15.3 13.8 90 0.9 ENE 7 9 4 5 1024.4 1024.4 0.0
21/02:30am 15.5 16.1 14.2 92 0.7 ENE 4 7 2 4 1024.4 1024.4 0.0
21/02:00am 15.6 17.0 14.5 93 0.6 CALM 0 0 0 0 1024.2 1024.2 0.0
21/01:51am 15.4 16.8 14.3 93 0.6 CALM 0 0 0 0 1024.3 1024.3 0.0
21/01:30am 15.1 16.4 14.0 93 0.6 CALM 0 0 0 0 1024.4 1024.4 0.0
21/01:00am 14.6 14.5 13.3 92 0.7 ENE 6 7 3 4 1024.6 1024.6 0.0
21/12:30am 15.5 16.5 14.4 93 0.6 ENE 2 6 1 3 1024.8 1024.8 0.0
21/12:24am 15.1 16.3 13.8 92 0.7 CALM 0 0 0 0 1024.8 1024.8 0.0
21/12:00am 15.5 16.7 13.9 90 0.9 CALM 0 2 0 1 1024.9 1024.9 0.0
 
Date/Time
EST
Temp
°C
App
Temp
°C
Dew
Point
°C
Rel
Hum
%
Delta-T
°C
Wind Press
QNH
hPa
Press
MSL
hPa
Rain since
9am
mm
Dir  Spd
km/h
Gust
km/h
Spd
kts
Gust
kts
20/11:48pm 15.5 15.6 14.0 91 0.8 ENE 6 9 3 5 1024.9 1024.9 0.0
20/11:30pm 16.3 16.4 14.5 89 1.0 ENE 7 9 4 5 1024.9 1024.9 0.0
20/11:00pm 17.2 18.8 15.0 87 1.3 CALM 0 0 0 0 1025.2 1025.2 0.0
20/10:56pm 17.3 19.0 15.3 88 1.2 CALM 0 0 0 0 1025.2 1025.2 0.0
20/10:30pm 17.7 19.0 15.1 85 1.5 ENE 2 6 1 3 1025.2 1025.2 0.0
20/10:00pm 17.8 18.4 15.4 86 1.4 ENE 6 7 3 4 1025.2 1025.2 0.0
20/09:32pm 17.3 17.8 15.1 87 1.3 ENE 6 7 3 4 1025.2 1025.2 0.0
20/09:30pm 17.0 17.3 14.5 85 1.4 ENE 6 7 3 4 1025.3 1025.3 0.0
20/09:00pm 18.4 18.7 15.1 81 1.9 ENE 7 11 4 6 1025.3 1025.3 0.0
20/08:30pm 18.9 18.5 15.2 79 2.2 E 11 17 6 9 1024.9 1024.9 0.0
20/08:00pm 19.4 18.4 15.5 78 2.3 ENE 15 19 8 10 1024.7 1024.7 0.0
20/07:30pm 19.6 17.4 14.8 74 2.8 ENE 20 28 11 15 1024.4 1024.4 0.0
20/07:00pm 20.3 17.6 14.7 70 3.3 E 22 33 12 18 1024.0 1024.0 0.0
20/06:30pm 20.8 17.8 14.7 68 3.6 ENE 24 32 13 17 1023.5 1023.5 0.0
20/06:00pm 21.3 18.1 14.2 64 4.1 ENE 24 33 13 18 1022.8 1022.8 0.0
20/05:30pm 22.0 18.2 13.6 59 4.9 ENE 26 35 14 19 1022.2 1022.2 0.0
20/05:00pm 22.7 19.1 12.9 54 5.6 NE 24 33 13 18 1022.0 1022.0 0.0
20/04:30pm 23.6 18.5 13.2 52 6.0 ENE 32 41 17 22 1021.8 1021.8 0.0
20/04:00pm 24.1 19.6 12.7 49 6.5 ENE 28 37 15 20 1021.4 1021.4 0.0
20/03:30pm 24.3 19.9 12.9 49 6.6 E 28 35 15 19 1021.1 1021.1 0.0

Other formats

Comma delimited format used in spreadsheet applications
http://www.bom.gov.au/fwo/IDQ60801/IDQ60801.94568.axf

JavaScript Object Notation format (JSON) in row-major order
http://www.bom.gov.au/fwo/IDQ60801/IDQ60801.94568.json

Data quality

Most of these data are generated automatically and are frequently updated. Quality checks on data are not normally performed. It is possible for incorrect values to appear. Refer to information at About Latest Weather Observations and please check the disclaimer before using these data.